sensor_id;sensor_type;location;lat;lon;timestamp;P1;durP1;ratioP1;P2;durP2;ratioP2
25319;SDS011;13256;49.012;8.610;2023-04-06T00:00:58;7.15;;;4.50;;
25319;SDS011;13256;49.012;8.610;2023-04-06T00:03:25;9.45;;;4.57;;
25319;SDS011;13256;49.012;8.610;2023-04-06T00:05:59;9.27;;;4.65;;
25319;SDS011;13256;49.012;8.610;2023-04-06T00:08:29;7.03;;;4.53;;
25319;SDS011;13256;49.012;8.610;2023-04-06T00:10:59;8.52;;;4.55;;
25319;SDS011;13256;49.012;8.610;2023-04-06T00:13:26;8.55;;;4.75;;
25319;SDS011;13256;49.012;8.610;2023-04-06T00:15:53;9.25;;;4.80;;
25319;SDS011;13256;49.012;8.610;2023-04-06T00:18:20;8.05;;;4.65;;
25319;SDS011;13256;49.012;8.610;2023-04-06T00:20:48;10.05;;;6.05;;
25319;SDS011;13256;49.012;8.610;2023-04-06T00:23:17;13.73;;;6.10;;
25319;SDS011;13256;49.012;8.610;2023-04-06T00:25:47;12.57;;;6.03;;
25319;SDS011;13256;49.012;8.610;2023-04-06T00:28:18;14.18;;;6.43;;
25319;SDS011;13256;49.012;8.610;2023-04-06T00:30:51;9.25;;;5.45;;
25319;SDS011;13256;49.012;8.610;2023-04-06T00:33:23;10.30;;;5.65;;
25319;SDS011;13256;49.012;8.610;2023-04-06T00:36:17;15.77;;;8.05;;
25319;SDS011;13256;49.012;8.610;2023-04-06T00:38:44;14.93;;;8.15;;
25319;SDS011;13256;49.012;8.610;2023-04-06T00:41:14;12.85;;;6.65;;
25319;SDS011;13256;49.012;8.610;2023-04-06T00:43:43;9.35;;;5.60;;
25319;SDS011;13256;49.012;8.610;2023-04-06T00:46:10;10.43;;;5.07;;
25319;SDS011;13256;49.012;8.610;2023-04-06T00:48:38;7.22;;;5.00;;
25319;SDS011;13256;49.012;8.610;2023-04-06T00:51:09;9.23;;;5.00;;
25319;SDS011;13256;49.012;8.610;2023-04-06T00:53:36;8.85;;;5.00;;
25319;SDS011;13256;49.012;8.610;2023-04-06T00:56:04;9.60;;;4.45;;
25319;SDS011;13256;49.012;8.610;2023-04-06T00:58:44;7.75;;;4.38;;
25319;SDS011;13256;49.012;8.610;2023-04-06T01:01:14;8.90;;;4.70;;
25319;SDS011;13256;49.012;8.610;2023-04-06T01:03:41;7.82;;;4.60;;
25319;SDS011;13256;49.012;8.610;2023-04-06T01:06:14;8.30;;;4.70;;
25319;SDS011;13256;49.012;8.610;2023-04-06T01:08:42;5.95;;;4.45;;
25319;SDS011;13256;49.012;8.610;2023-04-06T01:11:36;8.27;;;4.43;;
25319;SDS011;13256;49.012;8.610;2023-04-06T01:14:08;4.88;;;3.40;;
25319;SDS011;13256;49.012;8.610;2023-04-06T01:16:58;7.53;;;4.88;;
25319;SDS011;13256;49.012;8.610;2023-04-06T01:19:34;7.88;;;4.75;;
25319;SDS011;13256;49.012;8.610;2023-04-06T01:22:04;8.20;;;4.20;;
25319;SDS011;13256;49.012;8.610;2023-04-06T01:24:31;11.60;;;5.40;;
25319;SDS011;13256;49.012;8.610;2023-04-06T01:26:58;8.23;;;4.95;;
25319;SDS011;13256;49.012;8.610;2023-04-06T01:29:54;10.18;;;4.90;;
25319;SDS011;13256;49.012;8.610;2023-04-06T01:32:36;9.32;;;4.72;;
25319;SDS011;13256;49.012;8.610;2023-04-06T01:35:08;10.15;;;4.90;;
25319;SDS011;13256;49.012;8.610;2023-04-06T01:37:44;8.45;;;5.22;;
25319;SDS011;13256;49.012;8.610;2023-04-06T01:40:23;8.13;;;4.63;;
25319;SDS011;13256;49.012;8.610;2023-04-06T01:42:52;8.68;;;4.90;;
25319;SDS011;13256;49.012;8.610;2023-04-06T01:45:34;8.15;;;4.65;;
25319;SDS011;13256;49.012;8.610;2023-04-06T01:48:12;8.35;;;4.53;;
25319;SDS011;13256;49.012;8.610;2023-04-06T01:50:39;8.15;;;4.85;;
25319;SDS011;13256;49.012;8.610;2023-04-06T01:53:07;8.13;;;4.82;;
25319;SDS011;13256;49.012;8.610;2023-04-06T01:55:36;9.77;;;5.05;;
25319;SDS011;13256;49.012;8.610;2023-04-06T01:58:23;9.05;;;4.28;;
25319;SDS011;13256;49.012;8.610;2023-04-06T02:00:52;6.70;;;4.50;;
25319;SDS011;13256;49.012;8.610;2023-04-06T02:03:21;6.50;;;4.65;;
25319;SDS011;13256;49.012;8.610;2023-04-06T02:05:57;5.93;;;4.15;;
25319;SDS011;13256;49.012;8.610;2023-04-06T02:08:30;5.50;;;4.05;;
25319;SDS011;13256;49.012;8.610;2023-04-06T02:10:59;10.68;;;4.78;;
25319;SDS011;13256;49.012;8.610;2023-04-06T02:13:33;6.40;;;4.20;;
25319;SDS011;13256;49.012;8.610;2023-04-06T02:16:00;6.70;;;4.70;;
25319;SDS011;13256;49.012;8.610;2023-04-06T02:18:50;9.50;;;4.70;;
25319;SDS011;13256;49.012;8.610;2023-04-06T02:21:23;7.97;;;4.75;;
25319;SDS011;13256;49.012;8.610;2023-04-06T02:23:50;8.48;;;4.60;;
25319;SDS011;13256;49.012;8.610;2023-04-06T02:26:17;6.95;;;4.50;;
25319;SDS011;13256;49.012;8.610;2023-04-06T02:28:44;8.52;;;4.70;;
25319;SDS011;13256;49.012;8.610;2023-04-06T02:31:11;7.82;;;4.38;;
25319;SDS011;13256;49.012;8.610;2023-04-06T02:34:07;9.93;;;5.05;;
25319;SDS011;13256;49.012;8.610;2023-04-06T02:36:37;8.43;;;4.47;;
25319;SDS011;13256;49.012;8.610;2023-04-06T02:39:04;9.18;;;4.65;;
25319;SDS011;13256;49.012;8.610;2023-04-06T02:41:34;8.43;;;4.18;;
25319;SDS011;13256;49.012;8.610;2023-04-06T02:44:02;7.35;;;5.15;;
25319;SDS011;13256;49.012;8.610;2023-04-06T02:46:42;10.07;;;4.50;;
25319;SDS011;13256;49.012;8.610;2023-04-06T02:49:09;8.15;;;4.30;;
25319;SDS011;13256;49.012;8.610;2023-04-06T02:51:40;6.75;;;4.38;;
25319;SDS011;13256;49.012;8.610;2023-04-06T02:54:35;9.60;;;4.75;;
25319;SDS011;13256;49.012;8.610;2023-04-06T02:57:07;9.85;;;4.65;;
25319;SDS011;13256;49.012;8.610;2023-04-06T02:59:39;9.88;;;4.28;;
25319;SDS011;13256;49.012;8.610;2023-04-06T03:02:17;7.55;;;4.65;;
25319;SDS011;13256;49.012;8.610;2023-04-06T03:04:45;6.68;;;4.22;;
25319;SDS011;13256;49.012;8.610;2023-04-06T03:07:23;8.63;;;4.68;;
25319;SDS011;13256;49.012;8.610;2023-04-06T03:09:52;7.25;;;4.60;;
25319;SDS011;13256;49.012;8.610;2023-04-06T03:12:21;7.30;;;4.82;;
25319;SDS011;13256;49.012;8.610;2023-04-06T03:15:10;12.50;;;5.00;;
25319;SDS011;13256;49.012;8.610;2023-04-06T03:17:41;9.52;;;4.95;;
25319;SDS011;13256;49.012;8.610;2023-04-06T03:20:18;6.80;;;4.43;;
25319;SDS011;13256;49.012;8.610;2023-04-06T03:22:45;10.20;;;4.95;;
25319;SDS011;13256;49.012;8.610;2023-04-06T03:25:15;10.05;;;5.60;;
25319;SDS011;13256;49.012;8.610;2023-04-06T03:27:45;15.48;;;5.93;;
25319;SDS011;13256;49.012;8.610;2023-04-06T03:30:16;10.13;;;5.10;;
25319;SDS011;13256;49.012;8.610;2023-04-06T03:32:49;12.23;;;6.80;;
25319;SDS011;13256;49.012;8.610;2023-04-06T03:35:16;14.23;;;6.80;;
25319;SDS011;13256;49.012;8.610;2023-04-06T03:37:46;17.95;;;8.15;;
25319;SDS011;13256;49.012;8.610;2023-04-06T03:40:17;12.70;;;6.78;;
25319;SDS011;13256;49.012;8.610;2023-04-06T03:42:46;12.00;;;6.38;;
25319;SDS011;13256;49.012;8.610;2023-04-06T03:45:15;13.98;;;6.70;;
25319;SDS011;13256;49.012;8.610;2023-04-06T03:47:50;11.20;;;4.55;;
25319;SDS011;13256;49.012;8.610;2023-04-06T03:50:18;9.93;;;5.18;;
25319;SDS011;13256;49.012;8.610;2023-04-06T03:52:45;8.60;;;4.95;;
25319;SDS011;13256;49.012;8.610;2023-04-06T03:55:15;7.85;;;4.55;;
25319;SDS011;13256;49.012;8.610;2023-04-06T03:57:42;6.82;;;4.70;;
25319;SDS011;13256;49.012;8.610;2023-04-06T04:00:08;12.35;;;4.32;;
25319;SDS011;13256;49.012;8.610;2023-04-06T04:02:41;9.70;;;4.75;;
25319;SDS011;13256;49.012;8.610;2023-04-06T04:05:09;8.73;;;5.03;;
25319;SDS011;13256;49.012;8.610;2023-04-06T04:07:37;9.45;;;4.93;;
25319;SDS011;13256;49.012;8.610;2023-04-06T04:10:07;7.70;;;4.70;;
25319;SDS011;13256;49.012;8.610;2023-04-06T04:12:41;15.50;;;5.43;;
25319;SDS011;13256;49.012;8.610;2023-04-06T04:15:08;7.72;;;4.80;;
25319;SDS011;13256;49.012;8.610;2023-04-06T04:17:41;9.23;;;4.88;;
25319;SDS011;13256;49.012;8.610;2023-04-06T04:20:18;9.13;;;4.60;;
25319;SDS011;13256;49.012;8.610;2023-04-06T04:22:52;11.25;;;6.90;;
25319;SDS011;13256;49.012;8.610;2023-04-06T04:25:19;28.83;;;16.13;;
25319;SDS011;13256;49.012;8.610;2023-04-06T04:27:50;21.52;;;11.65;;
25319;SDS011;13256;49.012;8.610;2023-04-06T04:30:19;9.50;;;4.70;;
25319;SDS011;13256;49.012;8.610;2023-04-06T04:32:46;9.00;;;4.97;;
25319;SDS011;13256;49.012;8.610;2023-04-06T04:35:18;7.95;;;4.78;;
25319;SDS011;13256;49.012;8.610;2023-04-06T04:37:47;10.65;;;5.32;;
25319;SDS011;13256;49.012;8.610;2023-04-06T04:40:16;11.50;;;6.05;;
25319;SDS011;13256;49.012;8.610;2023-04-06T04:42:53;12.93;;;5.53;;
25319;SDS011;13256;49.012;8.610;2023-04-06T04:45:30;10.30;;;5.90;;
25319;SDS011;13256;49.012;8.610;2023-04-06T04:48:03;14.40;;;5.95;;
25319;SDS011;13256;49.012;8.610;2023-04-06T04:50:49;7.78;;;5.07;;
25319;SDS011;13256;49.012;8.610;2023-04-06T04:53:22;8.05;;;5.00;;
25319;SDS011;13256;49.012;8.610;2023-04-06T04:56:06;10.20;;;4.93;;
25319;SDS011;13256;49.012;8.610;2023-04-06T04:58:34;6.55;;;4.50;;
25319;SDS011;13256;49.012;8.610;2023-04-06T05:01:05;10.05;;;5.32;;
25319;SDS011;13256;49.012;8.610;2023-04-06T05:03:32;10.45;;;4.75;;
25319;SDS011;13256;49.012;8.610;2023-04-06T05:06:07;13.52;;;6.40;;
25319;SDS011;13256;49.012;8.610;2023-04-06T05:08:41;13.70;;;7.95;;
25319;SDS011;13256;49.012;8.610;2023-04-06T05:11:16;15.35;;;6.90;;
25319;SDS011;13256;49.012;8.610;2023-04-06T05:13:50;10.60;;;5.82;;
25319;SDS011;13256;49.012;8.610;2023-04-06T05:16:23;14.95;;;6.25;;
25319;SDS011;13256;49.012;8.610;2023-04-06T05:18:52;11.68;;;6.10;;
25319;SDS011;13256;49.012;8.610;2023-04-06T05:21:42;9.75;;;4.78;;
25319;SDS011;13256;49.012;8.610;2023-04-06T05:24:09;8.65;;;4.97;;
25319;SDS011;13256;49.012;8.610;2023-04-06T05:29:40;11.32;;;6.03;;
25319;SDS011;13256;49.012;8.610;2023-04-06T05:32:13;28.13;;;9.68;;
25319;SDS011;13256;49.012;8.610;2023-04-06T05:34:44;43.72;;;13.40;;
25319;SDS011;13256;49.012;8.610;2023-04-06T05:37:12;28.58;;;11.00;;
25319;SDS011;13256;49.012;8.610;2023-04-06T05:39:41;48.22;;;15.20;;
25319;SDS011;13256;49.012;8.610;2023-04-06T05:42:09;54.33;;;14.25;;
25319;SDS011;13256;49.012;8.610;2023-04-06T05:44:53;53.03;;;15.82;;
25319;SDS011;13256;49.012;8.610;2023-04-06T05:47:21;33.78;;;12.65;;
25319;SDS011;13256;49.012;8.610;2023-04-06T05:50:03;32.50;;;10.88;;
25319;SDS011;13256;49.012;8.610;2023-04-06T05:58:18;11.93;;;6.07;;
25319;SDS011;13256;49.012;8.610;2023-04-06T06:00:48;21.70;;;8.10;;
25319;SDS011;13256;49.012;8.610;2023-04-06T06:03:21;11.30;;;5.88;;
25319;SDS011;13256;49.012;8.610;2023-04-06T06:05:53;15.40;;;8.00;;
25319;SDS011;13256;49.012;8.610;2023-04-06T06:08:43;13.00;;;5.47;;
25319;SDS011;13256;49.012;8.610;2023-04-06T06:11:15;12.73;;;6.35;;
25319;SDS011;13256;49.012;8.610;2023-04-06T06:13:45;8.10;;;5.07;;
25319;SDS011;13256;49.012;8.610;2023-04-06T06:16:14;10.02;;;5.60;;
25319;SDS011;13256;49.012;8.610;2023-04-06T06:18:51;11.48;;;5.55;;
25319;SDS011;13256;49.012;8.610;2023-04-06T06:21:21;9.10;;;5.40;;
25319;SDS011;13256;49.012;8.610;2023-04-06T06:23:53;10.82;;;5.57;;
25319;SDS011;13256;49.012;8.610;2023-04-06T06:26:25;10.57;;;5.95;;
25319;SDS011;13256;49.012;8.610;2023-04-06T06:31:52;9.15;;;5.00;;
25319;SDS011;13256;49.012;8.610;2023-04-06T06:34:19;7.68;;;4.82;;
25319;SDS011;13256;49.012;8.610;2023-04-06T06:36:48;11.77;;;4.60;;
25319;SDS011;13256;49.012;8.610;2023-04-06T06:39:19;10.40;;;5.75;;
25319;SDS011;13256;49.012;8.610;2023-04-06T06:44:46;11.90;;;5.68;;
25319;SDS011;13256;49.012;8.610;2023-04-06T06:47:13;13.82;;;7.25;;
25319;SDS011;13256;49.012;8.610;2023-04-06T06:49:41;10.57;;;5.57;;
25319;SDS011;13256;49.012;8.610;2023-04-06T06:52:08;13.48;;;7.38;;
25319;SDS011;13256;49.012;8.610;2023-04-06T06:54:47;14.70;;;7.45;;
25319;SDS011;13256;49.012;8.610;2023-04-06T06:57:19;6.00;;;5.07;;
25319;SDS011;13256;49.012;8.610;2023-04-06T06:59:47;7.80;;;4.60;;
25319;SDS011;13256;49.012;8.610;2023-04-06T07:02:29;13.45;;;5.22;;
25319;SDS011;13256;49.012;8.610;2023-04-06T07:04:59;10.40;;;4.40;;
25319;SDS011;13256;49.012;8.610;2023-04-06T07:07:26;8.73;;;4.65;;
25319;SDS011;13256;49.012;8.610;2023-04-06T07:09:58;8.53;;;5.77;;
25319;SDS011;13256;49.012;8.610;2023-04-06T07:12:28;8.77;;;5.57;;
25319;SDS011;13256;49.012;8.610;2023-04-06T07:17:29;15.90;;;7.70;;
25319;SDS011;13256;49.012;8.610;2023-04-06T07:19:56;11.75;;;5.75;;
25319;SDS011;13256;49.012;8.610;2023-04-06T07:22:23;10.90;;;6.22;;
25319;SDS011;13256;49.012;8.610;2023-04-06T07:24:51;10.25;;;6.35;;
25319;SDS011;13256;49.012;8.610;2023-04-06T07:27:20;14.07;;;6.82;;
25319;SDS011;13256;49.012;8.610;2023-04-06T07:29:49;13.27;;;6.55;;
25319;SDS011;13256;49.012;8.610;2023-04-06T07:32:27;13.63;;;6.10;;
25319;SDS011;13256;49.012;8.610;2023-04-06T07:35:00;12.77;;;5.97;;
25319;SDS011;13256;49.012;8.610;2023-04-06T07:39:58;8.85;;;5.00;;
25319;SDS011;13256;49.012;8.610;2023-04-06T07:42:24;11.18;;;5.43;;
25319;SDS011;13256;49.012;8.610;2023-04-06T07:47:53;7.10;;;4.25;;
25319;SDS011;13256;49.012;8.610;2023-04-06T07:50:25;5.43;;;3.97;;
25319;SDS011;13256;49.012;8.610;2023-04-06T07:55:55;7.60;;;4.55;;
25319;SDS011;13256;49.012;8.610;2023-04-06T08:06:36;8.50;;;4.30;;
25319;SDS011;13256;49.012;8.610;2023-04-06T08:09:05;8.27;;;4.13;;
25319;SDS011;13256;49.012;8.610;2023-04-06T08:11:39;6.95;;;4.20;;
25319;SDS011;13256;49.012;8.610;2023-04-06T08:14:06;5.63;;;3.80;;
25319;SDS011;13256;49.012;8.610;2023-04-06T08:16:37;5.68;;;3.95;;
25319;SDS011;13256;49.012;8.610;2023-04-06T08:19:06;5.78;;;3.88;;
25319;SDS011;13256;49.012;8.610;2023-04-06T08:21:35;7.53;;;3.75;;
25319;SDS011;13256;49.012;8.610;2023-04-06T08:24:06;6.97;;;4.05;;
25319;SDS011;13256;49.012;8.610;2023-04-06T08:26:38;7.50;;;4.05;;
25319;SDS011;13256;49.012;8.610;2023-04-06T08:29:05;6.70;;;4.10;;
25319;SDS011;13256;49.012;8.610;2023-04-06T08:31:36;8.30;;;4.63;;
25319;SDS011;13256;49.012;8.610;2023-04-06T08:34:13;6.95;;;4.22;;
25319;SDS011;13256;49.012;8.610;2023-04-06T08:36:41;10.95;;;3.88;;
25319;SDS011;13256;49.012;8.610;2023-04-06T08:39:13;9.27;;;3.92;;
25319;SDS011;13256;49.012;8.610;2023-04-06T08:41:44;10.40;;;3.97;;
25319;SDS011;13256;49.012;8.610;2023-04-06T08:44:14;6.47;;;3.88;;
25319;SDS011;13256;49.012;8.610;2023-04-06T08:46:50;6.80;;;3.60;;
25319;SDS011;13256;49.012;8.610;2023-04-06T08:52:21;6.65;;;3.80;;
25319;SDS011;13256;49.012;8.610;2023-04-06T09:00:58;8.00;;;4.20;;
25319;SDS011;13256;49.012;8.610;2023-04-06T09:03:28;9.50;;;4.35;;
25319;SDS011;13256;49.012;8.610;2023-04-06T09:06:01;7.00;;;4.10;;
25319;SDS011;13256;49.012;8.610;2023-04-06T09:08:38;5.32;;;3.83;;
25319;SDS011;13256;49.012;8.610;2023-04-06T09:11:08;4.85;;;3.67;;
25319;SDS011;13256;49.012;8.610;2023-04-06T09:13:49;8.75;;;4.75;;
25319;SDS011;13256;49.012;8.610;2023-04-06T09:25:08;8.90;;;4.25;;
25319;SDS011;13256;49.012;8.610;2023-04-06T09:27:39;5.93;;;4.13;;
25319;SDS011;13256;49.012;8.610;2023-04-06T09:30:07;5.50;;;4.22;;
25319;SDS011;13256;49.012;8.610;2023-04-06T09:32:46;7.50;;;4.15;;
25319;SDS011;13256;49.012;8.610;2023-04-06T09:35:16;8.43;;;4.45;;
25319;SDS011;13256;49.012;8.610;2023-04-06T09:37:49;7.75;;;4.63;;
25319;SDS011;13256;49.012;8.610;2023-04-06T09:40:21;10.02;;;4.80;;
25319;SDS011;13256;49.012;8.610;2023-04-06T09:42:48;8.90;;;4.68;;
25319;SDS011;13256;49.012;8.610;2023-04-06T09:45:21;8.13;;;5.07;;
25319;SDS011;13256;49.012;8.610;2023-04-06T09:47:51;6.72;;;4.53;;
25319;SDS011;13256;49.012;8.610;2023-04-06T09:50:19;6.80;;;4.05;;
25319;SDS011;13256;49.012;8.610;2023-04-06T09:52:50;5.80;;;3.95;;
25319;SDS011;13256;49.012;8.610;2023-04-06T09:55:29;5.97;;;4.13;;
25319;SDS011;13256;49.012;8.610;2023-04-06T09:58:05;6.43;;;4.40;;
25319;SDS011;13256;49.012;8.610;2023-04-06T10:01:14;5.82;;;4.10;;
25319;SDS011;13256;49.012;8.610;2023-04-06T10:04:13;7.97;;;4.82;;
25319;SDS011;13256;49.012;8.610;2023-04-06T10:06:45;6.80;;;4.38;;
25319;SDS011;13256;49.012;8.610;2023-04-06T10:09:19;7.28;;;4.68;;
25319;SDS011;13256;49.012;8.610;2023-04-06T10:11:52;7.35;;;4.30;;
25319;SDS011;13256;49.012;8.610;2023-04-06T10:14:22;7.18;;;4.65;;
25319;SDS011;13256;49.012;8.610;2023-04-06T10:16:51;8.85;;;5.47;;
25319;SDS011;13256;49.012;8.610;2023-04-06T10:19:20;9.77;;;5.20;;
25319;SDS011;13256;49.012;8.610;2023-04-06T10:21:58;6.88;;;4.50;;
25319;SDS011;13256;49.012;8.610;2023-04-06T10:24:31;7.10;;;4.65;;
25319;SDS011;13256;49.012;8.610;2023-04-06T10:27:02;8.57;;;5.10;;
25319;SDS011;13256;49.012;8.610;2023-04-06T10:29:43;6.68;;;4.82;;
25319;SDS011;13256;49.012;8.610;2023-04-06T10:32:13;8.63;;;5.45;;
25319;SDS011;13256;49.012;8.610;2023-04-06T10:34:40;8.68;;;5.07;;
25319;SDS011;13256;49.012;8.610;2023-04-06T10:37:18;9.70;;;5.70;;
25319;SDS011;13256;49.012;8.610;2023-04-06T10:39:52;9.70;;;4.85;;
25319;SDS011;13256;49.012;8.610;2023-04-06T10:42:39;11.02;;;5.15;;
25319;SDS011;13256;49.012;8.610;2023-04-06T10:45:18;10.15;;;5.20;;
25319;SDS011;13256;49.012;8.610;2023-04-06T10:47:58;10.15;;;5.40;;
25319;SDS011;13256;49.012;8.610;2023-04-06T10:50:25;8.80;;;5.13;;
25319;SDS011;13256;49.012;8.610;2023-04-06T10:53:02;8.50;;;5.40;;
25319;SDS011;13256;49.012;8.610;2023-04-06T10:55:38;8.02;;;4.63;;
25319;SDS011;13256;49.012;8.610;2023-04-06T10:58:07;10.02;;;5.03;;
25319;SDS011;13256;49.012;8.610;2023-04-06T11:00:35;7.07;;;4.72;;
25319;SDS011;13256;49.012;8.610;2023-04-06T11:06:18;9.50;;;5.63;;
25319;SDS011;13256;49.012;8.610;2023-04-06T11:08:57;7.22;;;5.03;;
25319;SDS011;13256;49.012;8.610;2023-04-06T11:11:27;8.23;;;4.65;;
25319;SDS011;13256;49.012;8.610;2023-04-06T11:14:00;8.75;;;5.75;;
25319;SDS011;13256;49.012;8.610;2023-04-06T11:16:32;9.60;;;5.55;;
25319;SDS011;13256;49.012;8.610;2023-04-06T11:19:04;7.63;;;5.50;;
25319;SDS011;13256;49.012;8.610;2023-04-06T11:21:46;8.27;;;5.45;;
25319;SDS011;13256;49.012;8.610;2023-04-06T11:32:51;8.30;;;5.18;;
25319;SDS011;13256;49.012;8.610;2023-04-06T11:35:22;11.65;;;5.00;;
25319;SDS011;13256;49.012;8.610;2023-04-06T11:37:50;8.50;;;5.50;;
25319;SDS011;13256;49.012;8.610;2023-04-06T11:40:25;11.07;;;6.72;;
25319;SDS011;13256;49.012;8.610;2023-04-06T11:43:06;9.63;;;5.53;;
25319;SDS011;13256;49.012;8.610;2023-04-06T11:48:43;9.52;;;5.05;;
25319;SDS011;13256;49.012;8.610;2023-04-06T11:51:37;11.70;;;5.70;;
25319;SDS011;13256;49.012;8.610;2023-04-06T11:54:06;9.65;;;5.18;;
25319;SDS011;13256;49.012;8.610;2023-04-06T11:56:37;8.10;;;5.30;;
25319;SDS011;13256;49.012;8.610;2023-04-06T11:59:12;8.85;;;5.32;;
25319;SDS011;13256;49.012;8.610;2023-04-06T12:02:25;9.23;;;5.72;;
25319;SDS011;13256;49.012;8.610;2023-04-06T12:05:19;7.57;;;5.07;;
25319;SDS011;13256;49.012;8.610;2023-04-06T12:07:51;8.43;;;4.97;;
25319;SDS011;13256;49.012;8.610;2023-04-06T12:10:18;10.00;;;5.10;;
25319;SDS011;13256;49.012;8.610;2023-04-06T12:12:51;8.65;;;4.80;;
25319;SDS011;13256;49.012;8.610;2023-04-06T12:15:30;8.20;;;5.47;;
25319;SDS011;13256;49.012;8.610;2023-04-06T12:18:34;8.73;;;5.53;;
25319;SDS011;13256;49.012;8.610;2023-04-06T12:21:05;9.77;;;6.07;;
25319;SDS011;13256;49.012;8.610;2023-04-06T12:23:32;10.75;;;5.90;;
25319;SDS011;13256;49.012;8.610;2023-04-06T12:25:59;7.10;;;4.88;;
25319;SDS011;13256;49.012;8.610;2023-04-06T12:28:27;8.43;;;5.18;;
25319;SDS011;13256;49.012;8.610;2023-04-06T12:30:57;9.98;;;5.47;;
25319;SDS011;13256;49.012;8.610;2023-04-06T12:33:23;10.30;;;5.50;;
25319;SDS011;13256;49.012;8.610;2023-04-06T12:35:57;8.32;;;5.13;;
25319;SDS011;13256;49.012;8.610;2023-04-06T12:38:27;8.18;;;5.47;;
25319;SDS011;13256;49.012;8.610;2023-04-06T12:40:54;9.88;;;5.45;;
25319;SDS011;13256;49.012;8.610;2023-04-06T12:43:24;8.50;;;5.43;;
25319;SDS011;13256;49.012;8.610;2023-04-06T12:45:54;9.13;;;5.15;;
25319;SDS011;13256;49.012;8.610;2023-04-06T12:48:22;9.32;;;4.63;;
25319;SDS011;13256;49.012;8.610;2023-04-06T12:51:00;8.93;;;5.05;;
25319;SDS011;13256;49.012;8.610;2023-04-06T12:53:29;6.82;;;4.22;;
25319;SDS011;13256;49.012;8.610;2023-04-06T12:55:58;8.65;;;5.07;;
25319;SDS011;13256;49.012;8.610;2023-04-06T12:58:26;8.27;;;4.57;;
25319;SDS011;13256;49.012;8.610;2023-04-06T13:00:58;8.23;;;4.80;;
25319;SDS011;13256;49.012;8.610;2023-04-06T13:03:29;7.68;;;5.13;;
25319;SDS011;13256;49.012;8.610;2023-04-06T13:06:00;10.18;;;5.30;;
25319;SDS011;13256;49.012;8.610;2023-04-06T13:08:41;7.75;;;4.32;;
25319;SDS011;13256;49.012;8.610;2023-04-06T13:11:10;9.95;;;5.32;;
25319;SDS011;13256;49.012;8.610;2023-04-06T13:14:03;7.47;;;4.57;;
25319;SDS011;13256;49.012;8.610;2023-04-06T13:16:30;9.05;;;4.53;;
25319;SDS011;13256;49.012;8.610;2023-04-06T13:19:01;10.68;;;5.15;;
25319;SDS011;13256;49.012;8.610;2023-04-06T13:21:59;14.32;;;5.82;;
25319;SDS011;13256;49.012;8.610;2023-04-06T13:24:29;11.23;;;5.13;;
25319;SDS011;13256;49.012;8.610;2023-04-06T13:27:03;7.57;;;4.87;;
25319;SDS011;13256;49.012;8.610;2023-04-06T13:32:12;9.65;;;4.47;;
25319;SDS011;13256;49.012;8.610;2023-04-06T13:34:50;6.63;;;4.25;;
25319;SDS011;13256;49.012;8.610;2023-04-06T13:37:20;7.47;;;4.38;;
25319;SDS011;13256;49.012;8.610;2023-04-06T13:39:51;7.22;;;4.45;;
25319;SDS011;13256;49.012;8.610;2023-04-06T13:42:19;18.60;;;9.87;;
25319;SDS011;13256;49.012;8.610;2023-04-06T13:44:46;18.17;;;8.95;;
25319;SDS011;13256;49.012;8.610;2023-04-06T13:47:13;12.60;;;5.35;;
25319;SDS011;13256;49.012;8.610;2023-04-06T13:49:43;8.68;;;5.20;;
25319;SDS011;13256;49.012;8.610;2023-04-06T13:52:11;7.95;;;5.00;;
25319;SDS011;13256;49.012;8.610;2023-04-06T13:54:48;16.88;;;9.15;;
25319;SDS011;13256;49.012;8.610;2023-04-06T13:57:17;9.38;;;5.25;;
25319;SDS011;13256;49.012;8.610;2023-04-06T14:00:00;8.93;;;5.60;;
25319;SDS011;13256;49.012;8.610;2023-04-06T14:02:39;10.93;;;5.10;;
25319;SDS011;13256;49.012;8.610;2023-04-06T14:05:06;9.55;;;5.20;;
25319;SDS011;13256;49.012;8.610;2023-04-06T14:07:34;13.02;;;4.97;;
25319;SDS011;13256;49.012;8.610;2023-04-06T14:10:04;9.10;;;4.68;;
25319;SDS011;13256;49.012;8.610;2023-04-06T14:12:32;8.48;;;5.07;;
25319;SDS011;13256;49.012;8.610;2023-04-06T14:15:02;8.00;;;3.78;;
25319;SDS011;13256;49.012;8.610;2023-04-06T14:20:23;10.05;;;4.30;;
25319;SDS011;13256;49.012;8.610;2023-04-06T14:22:52;5.95;;;3.63;;
25319;SDS011;13256;49.012;8.610;2023-04-06T14:25:27;6.60;;;4.22;;
25319;SDS011;13256;49.012;8.610;2023-04-06T14:28:22;7.53;;;4.10;;
25319;SDS011;13256;49.012;8.610;2023-04-06T14:30:54;8.03;;;4.60;;
25319;SDS011;13256;49.012;8.610;2023-04-06T14:54:03;8.35;;;4.20;;
25319;SDS011;13256;49.012;8.610;2023-04-06T14:56:31;7.05;;;3.53;;
25319;SDS011;13256;49.012;8.610;2023-04-06T14:59:02;11.45;;;5.60;;
25319;SDS011;13256;49.012;8.610;2023-04-06T15:01:34;11.95;;;5.72;;
25319;SDS011;13256;49.012;8.610;2023-04-06T15:04:05;6.60;;;3.75;;
25319;SDS011;13256;49.012;8.610;2023-04-06T15:06:33;5.97;;;3.42;;
25319;SDS011;13256;49.012;8.610;2023-04-06T15:09:07;6.23;;;3.60;;
25319;SDS011;13256;49.012;8.610;2023-04-06T15:11:38;7.50;;;3.65;;
25319;SDS011;13256;49.012;8.610;2023-04-06T15:14:08;10.40;;;3.78;;
25319;SDS011;13256;49.012;8.610;2023-04-06T15:16:38;9.63;;;4.05;;
25319;SDS011;13256;49.012;8.610;2023-04-06T15:19:07;10.07;;;4.22;;
25319;SDS011;13256;49.012;8.610;2023-04-06T15:21:37;8.02;;;3.85;;
25319;SDS011;13256;49.012;8.610;2023-04-06T15:24:05;7.45;;;4.03;;
25319;SDS011;13256;49.012;8.610;2023-04-06T15:26:35;6.70;;;3.80;;
25319;SDS011;13256;49.012;8.610;2023-04-06T15:29:09;11.20;;;4.70;;
25319;SDS011;13256;49.012;8.610;2023-04-06T15:31:36;8.55;;;3.90;;
25319;SDS011;13256;49.012;8.610;2023-04-06T15:34:13;10.00;;;4.35;;
25319;SDS011;13256;49.012;8.610;2023-04-06T15:36:44;7.45;;;4.00;;
25319;SDS011;13256;49.012;8.610;2023-04-06T15:39:20;7.88;;;4.05;;
25319;SDS011;13256;49.012;8.610;2023-04-06T15:41:50;5.88;;;3.70;;
25319;SDS011;13256;49.012;8.610;2023-04-06T15:44:27;6.68;;;4.00;;
25319;SDS011;13256;49.012;8.610;2023-04-06T15:46:56;8.40;;;4.22;;
25319;SDS011;13256;49.012;8.610;2023-04-06T15:49:24;8.15;;;4.13;;
25319;SDS011;13256;49.012;8.610;2023-04-06T15:51:55;11.07;;;5.78;;
25319;SDS011;13256;49.012;8.610;2023-04-06T15:54:28;8.15;;;4.05;;
25319;SDS011;13256;49.012;8.610;2023-04-06T15:56:56;12.27;;;7.03;;
25319;SDS011;13256;49.012;8.610;2023-04-06T15:59:24;11.45;;;6.45;;
25319;SDS011;13256;49.012;8.610;2023-04-06T16:01:53;17.27;;;8.70;;
25319;SDS011;13256;49.012;8.610;2023-04-06T16:04:22;16.08;;;7.45;;
25319;SDS011;13256;49.012;8.610;2023-04-06T16:06:54;42.95;;;16.13;;
25319;SDS011;13256;49.012;8.610;2023-04-06T16:09:25;75.30;;;27.17;;
25319;SDS011;13256;49.012;8.610;2023-04-06T16:11:51;52.55;;;21.65;;
25319;SDS011;13256;49.012;8.610;2023-04-06T16:14:20;24.02;;;10.85;;
25319;SDS011;13256;49.012;8.610;2023-04-06T16:16:50;15.82;;;8.18;;
25319;SDS011;13256;49.012;8.610;2023-04-06T16:19:24;19.40;;;9.05;;
25319;SDS011;13256;49.012;8.610;2023-04-06T16:21:50;26.38;;;11.75;;
25319;SDS011;13256;49.012;8.610;2023-04-06T16:24:22;15.48;;;7.60;;
25319;SDS011;13256;49.012;8.610;2023-04-06T16:26:52;15.30;;;7.13;;
25319;SDS011;13256;49.012;8.610;2023-04-06T16:32:20;13.13;;;7.50;;
25319;SDS011;13256;49.012;8.610;2023-04-06T16:37:40;13.57;;;8.20;;
25319;SDS011;13256;49.012;8.610;2023-04-06T16:40:11;9.48;;;5.20;;
25319;SDS011;13256;49.012;8.610;2023-04-06T16:42:38;19.45;;;7.28;;
25319;SDS011;13256;49.012;8.610;2023-04-06T16:45:07;12.80;;;5.65;;
25319;SDS011;13256;49.012;8.610;2023-04-06T16:47:36;11.70;;;5.32;;
25319;SDS011;13256;49.012;8.610;2023-04-06T16:50:09;10.02;;;5.32;;
25319;SDS011;13256;49.012;8.610;2023-04-06T16:52:38;11.02;;;5.95;;